AirNav   Everest Fuels
 
 741 users online  

9II4 Cruzan Field Airport
Arcadia, Indiana, USA

GOING TO ARCADIA?


FAA INFORMATION EFFECTIVE 11 AUGUST 2022

Location

FAA Identifier: 9II4
Lat/Long: 40-10-21.0000N 085-56-41.0000W
40-10.350000N 085-56.683333W
40.1725000,-85.9447222
(estimated)
Elevation: 845 ft. / 258 m (estimated)
Variation: 03W (1990)
From city: 4 miles E of ARCADIA, IN
Time zone: UTC -4 (UTC -5 during Standard Time)
Zip code: 46034

Airport Operations

Airport use: Private use. Permission required prior to landing
Activation date: 11/1992
Control tower: no
ARTCC: CHICAGO CENTER
FSS: TERRE HAUTE FLIGHT SERVICE STATION
Attendance: UNATNDD
Wind indicator: yes
Segmented circle: no

Airport Communications

WX AWOS-3 at UMP (15 nm S): 119.375 (317-842-3911)
WX AWOS-3 at AID (16 nm E): 128.55 (765-442-1245)
WX AWOS-3PT at TYQ (16 nm SW): 120.725 (317-769-3154)
WX AWOS-3 at MQJ (20 nm S): 124.175 (317-335-3037)

Nearby radio navigation aids

VOR radial/distance  VOR name  Freq  Var
OKKr171/21.9KOKOMO VORTAC113.5005W
MZZr215/22.8MARION VOR/DME108.6003W
MIEr264/25.5MUNCIE VOR/DME114.4003W
VHPr041/29.0BRICKYARD VORTAC116.3001E
GUSr164/29.9GRISSOM VORTAC108.4502W
SHBr349/32.9SHELBYVILLE VOR/DME116.1501E

 
NDB name  Hdg/Dist  Freq  Var  ID
METROPOLITAN022/14.933803WUMP ..- -- .--.
NEW CASTLE307/33.738506WUWL ..- .-- .-..

Airport Services

Runway Information

Runway 9/27

Dimensions: 3300 x 70 ft. / 1006 x 21 m
Surface: turf
RUNWAY 9  RUNWAY 27
Latitude: 40-10.350000N
Longitude: 085-56.683333W
Elevation: 845.0 ft.
Traffic pattern: leftleft
Displaced threshold: no560 ft.
Obstructions: none35 ft. bldg, 140 ft. from runway

Airport Ownership and Management from official FAA records

Ownership: Privately-owned
Owner: ROBERT E. CRUZAN II
26410 S.R. 213
ARCADIA, IN 46030
Phone 317-439-0800
Manager: ROBERT E. CRUZAN II
26410 S.R. 213
ARCADIA, IN 46030
Phone 317-439-0800

Airport Operational Statistics

Aircraft based on the field: 4
Single engine airplanes: 1
Ultralights: 3
    

Additional Remarks

FOR CD CTC CHICAGO ARTCC AT 630-906-8921.

Instrument Procedures

There are no published instrument procedures at 9II4.

Some nearby airports with instrument procedures:

5I4 - Sheridan Airport (12 nm W)
KUMP - Indianapolis Metro Airport (15 nm S)
KAID - Anderson Municipal Airport-Darlington Field (16 nm E)
KTYQ - Indianapolis Executive Airport (16 nm SW)
KMQJ - Indianapolis Regional Airport (20 nm S)
 
Loc | Ops | Rwys | IFR | FBO | Links
Com | Nav | Svcs | Stats | Notes
Area around 9II4 (Cruzan Field Airport)
 
Road maps at: MapQuest Bing Google
 
Aerial photo
No photo
 
Sectional chart

 
Airport distance calculator
Flying to Cruzan Field Airport? Find the distance to fly.

From to 9II4

Sunrise and sunset
Times for 15-Aug-2022
 Local
(UTC-4)
 Zulu
(UTC)
Morning civil twilight06:2710:27
Sunrise06:5610:56
Sunset20:4000:40
Evening civil twilight21:1001:10

Current date and time
Zulu (UTC)  15-Aug-2022 11:11:59
Local (UTC-4)  15-Aug-2022 07:11:59
 
METAR
KUMP 
15nm S 
151055Z AUTO 03004KT 10SM OVC008 20/19 A2996 RMK AO2 T01970193
KAID 
15nm E 
151055Z AUTO 04005KT 7SM OVC017 19/17 A2996 RMK AO2 T01850165
KTYQ 
16nm SW 
151055Z AUTO 02006KT 3SM BR OVC004 18/18 A2997 RMK AO2 T01800176
KMQJ 
20nm S 
151055Z AUTO 36006KT 7SM OVC007 19/19 A2996 RMK AO1
KOKK 
22nm N 
151056Z AUTO 04004KT 7SM OVC018 18/ A2998 RMK AO2 SLP148 T0178 $
KMZZ 
23nm NE 
151055Z AUTO 05003KT 10SM OVC007 17/17 A2998 RMK AO2 T01710168
KMIE 
25nm E 
151053Z 05006KT 8SM OVC007 19/17 A2996 RMK AO2 SLP136 T01890167
KEYE 
26nm SW 
151053Z AUTO 36005KT 7SM OVC007 19/18 A2995 RMK AO2 SLP135 T01940178 $
KFKR 
29nm W 
151055Z AUTO 03005KT 5SM BR OVC006 18/18 A2996 RMK AO2
KGUS 
29nm N 
151056Z AUTO 04005KT 10SM BKN007 OVC027 18/17 A2997 RMK AO2 CIG 007V027 BKN V SCT SLP149 T01810171
TAF
KGUS 
29nm N 
142100Z 1421/1603 VRB06KT 9999 OVC019 QNH2987INS BECMG 1509/1510 04006KT 8000 BR BKN010 OVC017 QNH2995INS BECMG 1510/1511 03006KT 8000 BR BKN005 OVC010 QNH2996INS BECMG 1511/1512 03006KT 8000 BR SCT005 OVC010 QNH2997INS BECMG 1516/1517 04012KT 9999 NSW FEW018 SCT025 BKN040 QNH2999INS TX26/1520Z TN16/1511Z LAST NO AMDS AFT 1503 NEXT 1513
KIND 
31nm SW 
151008Z 1510/1612 35006KT P6SM BCFG OVC008 FM151200 01006KT P6SM SCT008 OVC011 FM151500 03009KT P6SM SCT011 SCT035
NOTAMs
Click for the latest NOTAMs
NOTAMs are issued by the DoD/FAA and will open in a separate window not controlled by AirNav.

 

 
 

Would you like to see your business listed on this page?

 If your business provides an interesting product or service to pilots, flight crews, aircraft, or users of the Cruzan Field Airport, you should consider listing it here.  To start the listing process, click on the button below
 
Add a business
 

Other Pages about Cruzan Field Airport

Update a link
 
Copyright © AirNav, LLC. All rights reserved. Privacy Policy  Contact